Pavonia, Ohio
Current Conditions -  °F | °C
As of 11:52 AM on Monday 22 Dec 2014 (Local Time) from KMFD Reporting Station
Overcast Overcast  
Wind Chill: 27°   Ceiling: 4100
Heat Index: 34°   Visibility: 7mi
Dew Point: 29°   Wind: 8mph
Humidity: 82%   Direction: 120°ESE
Pressure: 30.01"   Gusts: NA
Location:  40.7789°N, 82.5216°W
Report Text: KMFD 221652Z 12007KT 7SM OVC041 01/M02 A3001 RMK AO2 SLP175 T00111017
Loading
Personal Weather Stations






























Interactive Weather Map New forecast layout! Learn more

10-Day Weather Forecast

Advertisements
Track Severe Weather on mobile